Terminal Aerodrome Forecast
Issued by NWS Pocatello, ID

Home | Current Version | Previous Version | Text Only | Print | Product List | Glossary On
Versions: 1 2 3 4 5 6 7 8 9 10 11 12 13 14 15 16 17
000
FTUS45 KPIH 280810 AAA
TAFIDA
TAF AMD
KIDA 280810Z 2808/2906 20010KT P6SM SCT100
      TEMPO 2810/2811 VRB15G30KT 6SM -TSRA SCT080CB BKN120
     FM281100 VRB05KT P6SM FEW070
     FM281700 21013G23KT P6SM VCTS SCT100CB BKN250
     FM290300 19008KT P6SM SCT250=

USA.gov is the U.S. government's official web portal to all federal, state and local government web resources and services.